Myronivka, Ukraine
Current Conditions -  °F | °C
As of 9:00 AM on Monday 26 Jan 2015 (Local Time) from UKBB Reporting Station
Snow Showers Snow Showers  
Wind Chill: 27°   Ceiling: 800
Heat Index: 27°   Visibility: 1mi
Dew Point: 27°   Wind: 2mph
Humidity: 100%   Direction: NA
Pressure: 30.18"   Gusts: NA
Location:  49.65°N, 30.98°E
Report Text: UKBB 260600Z VRB01MPS 1600 SHSN SCT005 BKN008CB OVC010 M03/M03 Q1022 86421040 36451040 TEMPO 1200 -SHSN BR
Loading
Personal Weather Stations






























Interactive Weather Map New forecast layout! Learn more

10-Day Weather Forecast

Advertisements
Track Severe Weather on mobile